sensor_id;sensor_type;location;lat;lon;timestamp;P1;durP1;ratioP1;P2;durP2;ratioP2
10260;SDS011;5175;42.606;23.388;2024-01-25T00:02:23;9.40;;;8.03;;
10260;SDS011;5175;42.606;23.388;2024-01-25T00:04:51;10.50;;;8.20;;
10260;SDS011;5175;42.606;23.388;2024-01-25T00:07:17;11.87;;;9.00;;
10260;SDS011;5175;42.606;23.388;2024-01-25T00:09:44;11.10;;;8.87;;
10260;SDS011;5175;42.606;23.388;2024-01-25T00:12:11;12.00;;;8.63;;
10260;SDS011;5175;42.606;23.388;2024-01-25T00:14:37;11.47;;;8.17;;
10260;SDS011;5175;42.606;23.388;2024-01-25T00:17:04;9.73;;;7.13;;
10260;SDS011;5175;42.606;23.388;2024-01-25T00:19:33;10.53;;;7.90;;
10260;SDS011;5175;42.606;23.388;2024-01-25T00:22:01;8.60;;;6.70;;
10260;SDS011;5175;42.606;23.388;2024-01-25T00:24:28;10.60;;;7.63;;
10260;SDS011;5175;42.606;23.388;2024-01-25T00:26:54;12.77;;;8.63;;
10260;SDS011;5175;42.606;23.388;2024-01-25T00:29:21;10.30;;;7.40;;
10260;SDS011;5175;42.606;23.388;2024-01-25T00:31:48;9.73;;;7.07;;
10260;SDS011;5175;42.606;23.388;2024-01-25T00:34:15;6.80;;;5.73;;
10260;SDS011;5175;42.606;23.388;2024-01-25T00:36:42;6.07;;;5.00;;
10260;SDS011;5175;42.606;23.388;2024-01-25T00:39:10;7.93;;;5.10;;
10260;SDS011;5175;42.606;23.388;2024-01-25T00:41:37;6.57;;;4.73;;
10260;SDS011;5175;42.606;23.388;2024-01-25T00:44:05;6.93;;;5.43;;
10260;SDS011;5175;42.606;23.388;2024-01-25T00:46:32;6.23;;;5.07;;
10260;SDS011;5175;42.606;23.388;2024-01-25T00:48:59;5.07;;;4.57;;
10260;SDS011;5175;42.606;23.388;2024-01-25T00:51:26;5.50;;;4.60;;
10260;SDS011;5175;42.606;23.388;2024-01-25T00:53:54;6.70;;;4.37;;
10260;SDS011;5175;42.606;23.388;2024-01-25T00:56:22;5.77;;;4.57;;
10260;SDS011;5175;42.606;23.388;2024-01-25T00:58:50;5.33;;;4.43;;
10260;SDS011;5175;42.606;23.388;2024-01-25T01:01:17;6.37;;;4.20;;
10260;SDS011;5175;42.606;23.388;2024-01-25T01:03:47;5.83;;;4.80;;
10260;SDS011;5175;42.606;23.388;2024-01-25T01:06:17;6.60;;;5.07;;
10260;SDS011;5175;42.606;23.388;2024-01-25T01:08:45;6.60;;;4.77;;
10260;SDS011;5175;42.606;23.388;2024-01-25T01:11:12;7.60;;;4.93;;
10260;SDS011;5175;42.606;23.388;2024-01-25T01:13:40;8.77;;;6.07;;
10260;SDS011;5175;42.606;23.388;2024-01-25T01:16:07;9.27;;;6.20;;
10260;SDS011;5175;42.606;23.388;2024-01-25T01:18:33;11.23;;;7.00;;
10260;SDS011;5175;42.606;23.388;2024-01-25T01:21:00;9.13;;;6.30;;
10260;SDS011;5175;42.606;23.388;2024-01-25T01:23:27;7.97;;;6.53;;
10260;SDS011;5175;42.606;23.388;2024-01-25T01:25:54;7.30;;;5.57;;
10260;SDS011;5175;42.606;23.388;2024-01-25T01:28:20;6.53;;;5.60;;
10260;SDS011;5175;42.606;23.388;2024-01-25T01:30:48;7.63;;;5.70;;
10260;SDS011;5175;42.606;23.388;2024-01-25T01:33:15;9.43;;;5.67;;
10260;SDS011;5175;42.606;23.388;2024-01-25T01:35:42;7.20;;;5.20;;
10260;SDS011;5175;42.606;23.388;2024-01-25T01:38:08;8.37;;;5.63;;
10260;SDS011;5175;42.606;23.388;2024-01-25T01:40:35;6.87;;;5.10;;
10260;SDS011;5175;42.606;23.388;2024-01-25T01:43:02;8.70;;;5.53;;
10260;SDS011;5175;42.606;23.388;2024-01-25T01:45:29;7.03;;;5.50;;
10260;SDS011;5175;42.606;23.388;2024-01-25T01:47:58;8.30;;;5.60;;
10260;SDS011;5175;42.606;23.388;2024-01-25T01:50:25;6.20;;;4.67;;
10260;SDS011;5175;42.606;23.388;2024-01-25T01:52:53;7.33;;;5.47;;
10260;SDS011;5175;42.606;23.388;2024-01-25T01:55:20;7.63;;;5.23;;
10260;SDS011;5175;42.606;23.388;2024-01-25T01:57:48;7.47;;;4.13;;
10260;SDS011;5175;42.606;23.388;2024-01-25T02:00:15;4.77;;;4.13;;
10260;SDS011;5175;42.606;23.388;2024-01-25T02:02:42;9.20;;;8.27;;
10260;SDS011;5175;42.606;23.388;2024-01-25T02:05:11;6.17;;;4.93;;
10260;SDS011;5175;42.606;23.388;2024-01-25T02:07:38;7.03;;;5.30;;
10260;SDS011;5175;42.606;23.388;2024-01-25T02:10:07;5.43;;;4.40;;
10260;SDS011;5175;42.606;23.388;2024-01-25T02:12:34;7.17;;;5.13;;
10260;SDS011;5175;42.606;23.388;2024-01-25T02:15:01;5.47;;;4.80;;
10260;SDS011;5175;42.606;23.388;2024-01-25T02:17:28;5.87;;;4.90;;
10260;SDS011;5175;42.606;23.388;2024-01-25T02:19:55;5.53;;;4.50;;
10260;SDS011;5175;42.606;23.388;2024-01-25T02:22:23;6.20;;;4.63;;
10260;SDS011;5175;42.606;23.388;2024-01-25T02:24:50;9.27;;;6.30;;
10260;SDS011;5175;42.606;23.388;2024-01-25T02:27:16;9.10;;;6.77;;
10260;SDS011;5175;42.606;23.388;2024-01-25T02:29:43;11.90;;;8.03;;
10260;SDS011;5175;42.606;23.388;2024-01-25T02:32:10;9.60;;;7.30;;
10260;SDS011;5175;42.606;23.388;2024-01-25T02:34:36;10.50;;;8.60;;
10260;SDS011;5175;42.606;23.388;2024-01-25T02:37:03;10.63;;;9.20;;
10260;SDS011;5175;42.606;23.388;2024-01-25T02:39:32;11.67;;;9.30;;
10260;SDS011;5175;42.606;23.388;2024-01-25T02:41:58;10.87;;;9.27;;
10260;SDS011;5175;42.606;23.388;2024-01-25T02:44:25;10.53;;;8.97;;
10260;SDS011;5175;42.606;23.388;2024-01-25T02:46:52;9.33;;;6.90;;
10260;SDS011;5175;42.606;23.388;2024-01-25T02:49:18;4.23;;;3.23;;
10260;SDS011;5175;42.606;23.388;2024-01-25T02:51:45;8.10;;;6.00;;
10260;SDS011;5175;42.606;23.388;2024-01-25T02:54:12;7.50;;;5.40;;
10260;SDS011;5175;42.606;23.388;2024-01-25T02:56:40;6.50;;;5.37;;
10260;SDS011;5175;42.606;23.388;2024-01-25T02:59:07;9.83;;;6.83;;
10260;SDS011;5175;42.606;23.388;2024-01-25T03:01:40;9.40;;;7.80;;
10260;SDS011;5175;42.606;23.388;2024-01-25T03:04:07;11.27;;;7.93;;
10260;SDS011;5175;42.606;23.388;2024-01-25T03:06:34;11.43;;;9.17;;
10260;SDS011;5175;42.606;23.388;2024-01-25T03:09:01;15.87;;;11.77;;
10260;SDS011;5175;42.606;23.388;2024-01-25T03:11:29;14.33;;;10.93;;
10260;SDS011;5175;42.606;23.388;2024-01-25T03:13:57;11.57;;;9.50;;
10260;SDS011;5175;42.606;23.388;2024-01-25T03:16:24;14.10;;;9.50;;
10260;SDS011;5175;42.606;23.388;2024-01-25T03:18:51;4.20;;;3.33;;
10260;SDS011;5175;42.606;23.388;2024-01-25T03:21:17;2.33;;;1.73;;
10260;SDS011;5175;42.606;23.388;2024-01-25T03:23:44;5.20;;;4.00;;
10260;SDS011;5175;42.606;23.388;2024-01-25T03:26:11;1.60;;;1.30;;
10260;SDS011;5175;42.606;23.388;2024-01-25T03:28:38;2.47;;;0.80;;
10260;SDS011;5175;42.606;23.388;2024-01-25T03:31:06;1.00;;;0.90;;
10260;SDS011;5175;42.606;23.388;2024-01-25T03:33:33;1.63;;;0.90;;
10260;SDS011;5175;42.606;23.388;2024-01-25T03:36:01;1.67;;;0.83;;
10260;SDS011;5175;42.606;23.388;2024-01-25T03:38:28;2.93;;;1.10;;
10260;SDS011;5175;42.606;23.388;2024-01-25T03:40:55;1.30;;;1.00;;
10260;SDS011;5175;42.606;23.388;2024-01-25T03:43:21;1.33;;;0.90;;
10260;SDS011;5175;42.606;23.388;2024-01-25T03:45:48;1.00;;;0.90;;
10260;SDS011;5175;42.606;23.388;2024-01-25T03:48:17;1.27;;;0.90;;
10260;SDS011;5175;42.606;23.388;2024-01-25T03:50:43;1.43;;;1.20;;
10260;SDS011;5175;42.606;23.388;2024-01-25T03:53:10;1.30;;;1.10;;
10260;SDS011;5175;42.606;23.388;2024-01-25T03:55:37;1.67;;;1.10;;
10260;SDS011;5175;42.606;23.388;2024-01-25T03:58:04;1.43;;;1.20;;
10260;SDS011;5175;42.606;23.388;2024-01-25T04:00:30;1.53;;;1.40;;
10260;SDS011;5175;42.606;23.388;2024-01-25T04:02:57;1.97;;;1.73;;
10260;SDS011;5175;42.606;23.388;2024-01-25T04:05:25;3.33;;;2.10;;
10260;SDS011;5175;42.606;23.388;2024-01-25T04:07:52;2.30;;;1.57;;
10260;SDS011;5175;42.606;23.388;2024-01-25T04:10:19;2.03;;;1.10;;
10260;SDS011;5175;42.606;23.388;2024-01-25T04:12:46;1.17;;;1.00;;
10260;SDS011;5175;42.606;23.388;2024-01-25T04:15:12;1.87;;;1.00;;
10260;SDS011;5175;42.606;23.388;2024-01-25T04:17:39;1.57;;;1.00;;
10260;SDS011;5175;42.606;23.388;2024-01-25T04:20:06;1.97;;;1.20;;
10260;SDS011;5175;42.606;23.388;2024-01-25T04:22:35;2.00;;;1.30;;
10260;SDS011;5175;42.606;23.388;2024-01-25T04:25:02;3.63;;;0.93;;
10260;SDS011;5175;42.606;23.388;2024-01-25T04:27:29;1.33;;;1.00;;
10260;SDS011;5175;42.606;23.388;2024-01-25T04:29:56;0.90;;;0.73;;
10260;SDS011;5175;42.606;23.388;2024-01-25T04:32:23;2.50;;;0.97;;
10260;SDS011;5175;42.606;23.388;2024-01-25T04:34:50;1.97;;;1.23;;
10260;SDS011;5175;42.606;23.388;2024-01-25T04:37:16;1.67;;;1.27;;
10260;SDS011;5175;42.606;23.388;2024-01-25T04:39:45;1.77;;;1.10;;
10260;SDS011;5175;42.606;23.388;2024-01-25T04:42:11;1.17;;;1.00;;
10260;SDS011;5175;42.606;23.388;2024-01-25T04:44:38;1.00;;;0.90;;
10260;SDS011;5175;42.606;23.388;2024-01-25T04:47:05;1.80;;;1.37;;
10260;SDS011;5175;42.606;23.388;2024-01-25T04:49:31;1.60;;;1.10;;
10260;SDS011;5175;42.606;23.388;2024-01-25T04:51:58;1.73;;;1.13;;
10260;SDS011;5175;42.606;23.388;2024-01-25T04:54:25;2.10;;;1.23;;
10260;SDS011;5175;42.606;23.388;2024-01-25T04:56:53;2.43;;;1.40;;
10260;SDS011;5175;42.606;23.388;2024-01-25T04:59:20;1.37;;;1.20;;
10260;SDS011;5175;42.606;23.388;2024-01-25T05:01:47;4.87;;;3.30;;
10260;SDS011;5175;42.606;23.388;2024-01-25T05:04:15;2.20;;;1.50;;
10260;SDS011;5175;42.606;23.388;2024-01-25T05:06:42;1.50;;;1.40;;
10260;SDS011;5175;42.606;23.388;2024-01-25T05:09:09;2.10;;;1.30;;
10260;SDS011;5175;42.606;23.388;2024-01-25T05:11:37;1.50;;;1.20;;
10260;SDS011;5175;42.606;23.388;2024-01-25T05:14:06;2.50;;;1.50;;
10260;SDS011;5175;42.606;23.388;2024-01-25T05:16:33;2.70;;;1.60;;
10260;SDS011;5175;42.606;23.388;2024-01-25T05:19:00;2.20;;;1.40;;
10260;SDS011;5175;42.606;23.388;2024-01-25T05:21:26;2.73;;;1.50;;
10260;SDS011;5175;42.606;23.388;2024-01-25T05:23:54;1.40;;;1.20;;
10260;SDS011;5175;42.606;23.388;2024-01-25T05:26:20;2.30;;;1.20;;
10260;SDS011;5175;42.606;23.388;2024-01-25T05:28:47;1.33;;;1.20;;
10260;SDS011;5175;42.606;23.388;2024-01-25T05:31:15;2.23;;;1.30;;
10260;SDS011;5175;42.606;23.388;2024-01-25T05:33:42;3.47;;;1.50;;
10260;SDS011;5175;42.606;23.388;2024-01-25T05:36:09;1.90;;;1.27;;
10260;SDS011;5175;42.606;23.388;2024-01-25T05:38:36;3.50;;;1.67;;
10260;SDS011;5175;42.606;23.388;2024-01-25T05:41:02;1.37;;;1.20;;
10260;SDS011;5175;42.606;23.388;2024-01-25T05:43:29;2.20;;;1.40;;
10260;SDS011;5175;42.606;23.388;2024-01-25T05:45:56;5.50;;;1.50;;
10260;SDS011;5175;42.606;23.388;2024-01-25T05:48:24;2.47;;;1.00;;
10260;SDS011;5175;42.606;23.388;2024-01-25T05:50:51;2.73;;;1.33;;
10260;SDS011;5175;42.606;23.388;2024-01-25T05:53:17;3.40;;;1.67;;
10260;SDS011;5175;42.606;23.388;2024-01-25T05:55:45;2.40;;;1.30;;
10260;SDS011;5175;42.606;23.388;2024-01-25T05:58:11;3.63;;;1.87;;
10260;SDS011;5175;42.606;23.388;2024-01-25T06:00:38;2.60;;;1.40;;
10260;SDS011;5175;42.606;23.388;2024-01-25T06:03:05;2.90;;;1.87;;
10260;SDS011;5175;42.606;23.388;2024-01-25T06:05:33;2.63;;;1.57;;
10260;SDS011;5175;42.606;23.388;2024-01-25T06:08:00;3.63;;;1.70;;
10260;SDS011;5175;42.606;23.388;2024-01-25T06:10:27;3.93;;;1.90;;
10260;SDS011;5175;42.606;23.388;2024-01-25T06:12:53;5.10;;;1.90;;
10260;SDS011;5175;42.606;23.388;2024-01-25T06:15:20;3.00;;;1.77;;
10260;SDS011;5175;42.606;23.388;2024-01-25T06:17:47;3.27;;;1.60;;
10260;SDS011;5175;42.606;23.388;2024-01-25T06:20:13;2.90;;;1.77;;
10260;SDS011;5175;42.606;23.388;2024-01-25T06:22:41;3.03;;;1.50;;
10260;SDS011;5175;42.606;23.388;2024-01-25T06:25:08;3.37;;;2.07;;
10260;SDS011;5175;42.606;23.388;2024-01-25T06:27:35;2.87;;;1.40;;
10260;SDS011;5175;42.606;23.388;2024-01-25T06:30:01;3.60;;;2.00;;
10260;SDS011;5175;42.606;23.388;2024-01-25T06:32:29;3.87;;;1.77;;
10260;SDS011;5175;42.606;23.388;2024-01-25T06:34:56;2.53;;;2.00;;
10260;SDS011;5175;42.606;23.388;2024-01-25T06:37:22;5.60;;;2.10;;
10260;SDS011;5175;42.606;23.388;2024-01-25T06:39:50;2.90;;;1.87;;
10260;SDS011;5175;42.606;23.388;2024-01-25T06:42:17;3.77;;;1.73;;
10260;SDS011;5175;42.606;23.388;2024-01-25T06:44:44;4.07;;;1.67;;
10260;SDS011;5175;42.606;23.388;2024-01-25T06:47:11;4.77;;;2.70;;
10260;SDS011;5175;42.606;23.388;2024-01-25T06:49:38;3.60;;;2.03;;
10260;SDS011;5175;42.606;23.388;2024-01-25T06:52:05;5.40;;;2.33;;
10260;SDS011;5175;42.606;23.388;2024-01-25T06:54:32;4.97;;;2.00;;
10260;SDS011;5175;42.606;23.388;2024-01-25T06:57:00;4.73;;;2.20;;
10260;SDS011;5175;42.606;23.388;2024-01-25T06:59:27;3.80;;;2.03;;
10260;SDS011;5175;42.606;23.388;2024-01-25T07:01:54;3.73;;;1.90;;
10260;SDS011;5175;42.606;23.388;2024-01-25T07:04:21;3.40;;;1.40;;
10260;SDS011;5175;42.606;23.388;2024-01-25T07:06:47;3.73;;;1.77;;
10260;SDS011;5175;42.606;23.388;2024-01-25T07:09:14;6.43;;;1.90;;
10260;SDS011;5175;42.606;23.388;2024-01-25T07:11:41;2.40;;;1.47;;
10260;SDS011;5175;42.606;23.388;2024-01-25T07:14:09;7.10;;;2.50;;
10260;SDS011;5175;42.606;23.388;2024-01-25T07:16:36;4.80;;;2.50;;
10260;SDS011;5175;42.606;23.388;2024-01-25T07:19:02;2.53;;;1.17;;
10260;SDS011;5175;42.606;23.388;2024-01-25T07:21:29;3.27;;;1.93;;
10260;SDS011;5175;42.606;23.388;2024-01-25T07:23:57;3.77;;;1.57;;
10260;SDS011;5175;42.606;23.388;2024-01-25T07:26:25;4.13;;;2.10;;
10260;SDS011;5175;42.606;23.388;2024-01-25T07:28:52;7.47;;;2.87;;
10260;SDS011;5175;42.606;23.388;2024-01-25T07:31:24;2.77;;;1.40;;
10260;SDS011;5175;42.606;23.388;2024-01-25T07:33:51;7.87;;;2.30;;
10260;SDS011;5175;42.606;23.388;2024-01-25T07:36:18;5.23;;;2.10;;
10260;SDS011;5175;42.606;23.388;2024-01-25T07:38:44;4.90;;;2.50;;
10260;SDS011;5175;42.606;23.388;2024-01-25T07:41:12;6.43;;;2.47;;
10260;SDS011;5175;42.606;23.388;2024-01-25T07:43:38;7.20;;;2.73;;
10260;SDS011;5175;42.606;23.388;2024-01-25T07:46:05;6.07;;;1.80;;
10260;SDS011;5175;42.606;23.388;2024-01-25T07:48:34;14.77;;;3.43;;
10260;SDS011;5175;42.606;23.388;2024-01-25T07:51:00;11.23;;;2.90;;
10260;SDS011;5175;42.606;23.388;2024-01-25T07:53:28;5.53;;;2.37;;
10260;SDS011;5175;42.606;23.388;2024-01-25T07:55:54;2.40;;;1.90;;
10260;SDS011;5175;42.606;23.388;2024-01-25T07:58:21;6.07;;;2.40;;
10260;SDS011;5175;42.606;23.388;2024-01-25T08:00:48;5.50;;;2.00;;
10260;SDS011;5175;42.606;23.388;2024-01-25T08:03:14;6.83;;;2.97;;
10260;SDS011;5175;42.606;23.388;2024-01-25T08:05:43;6.73;;;2.83;;
10260;SDS011;5175;42.606;23.388;2024-01-25T08:08:10;5.90;;;2.50;;
10260;SDS011;5175;42.606;23.388;2024-01-25T08:10:37;4.87;;;2.30;;
10260;SDS011;5175;42.606;23.388;2024-01-25T08:13:03;6.90;;;2.90;;
10260;SDS011;5175;42.606;23.388;2024-01-25T08:15:30;4.63;;;2.63;;
10260;SDS011;5175;42.606;23.388;2024-01-25T08:17:57;5.23;;;2.77;;
10260;SDS011;5175;42.606;23.388;2024-01-25T08:20:23;5.23;;;2.20;;
10260;SDS011;5175;42.606;23.388;2024-01-25T08:22:51;7.30;;;3.40;;
10260;SDS011;5175;42.606;23.388;2024-01-25T08:25:18;7.17;;;2.60;;
10260;SDS011;5175;42.606;23.388;2024-01-25T08:27:45;4.27;;;2.67;;
10260;SDS011;5175;42.606;23.388;2024-01-25T08:30:12;6.93;;;3.43;;
10260;SDS011;5175;42.606;23.388;2024-01-25T08:32:39;5.70;;;2.40;;
10260;SDS011;5175;42.606;23.388;2024-01-25T08:35:06;5.47;;;2.67;;
10260;SDS011;5175;42.606;23.388;2024-01-25T08:37:33;5.53;;;2.53;;
10260;SDS011;5175;42.606;23.388;2024-01-25T08:40:03;4.80;;;2.17;;
10260;SDS011;5175;42.606;23.388;2024-01-25T08:42:31;6.23;;;2.33;;
10260;SDS011;5175;42.606;23.388;2024-01-25T08:44:57;5.80;;;2.53;;
10260;SDS011;5175;42.606;23.388;2024-01-25T08:47:24;9.37;;;3.00;;
10260;SDS011;5175;42.606;23.388;2024-01-25T08:49:51;4.87;;;2.00;;
10260;SDS011;5175;42.606;23.388;2024-01-25T08:52:17;5.77;;;2.47;;
10260;SDS011;5175;42.606;23.388;2024-01-25T08:54:44;4.83;;;2.40;;
10260;SDS011;5175;42.606;23.388;2024-01-25T08:57:12;7.00;;;2.57;;
10260;SDS011;5175;42.606;23.388;2024-01-25T08:59:40;11.50;;;3.93;;
10260;SDS011;5175;42.606;23.388;2024-01-25T09:02:06;8.67;;;2.60;;
10260;SDS011;5175;42.606;23.388;2024-01-25T09:04:33;6.27;;;2.33;;
10260;SDS011;5175;42.606;23.388;2024-01-25T09:07:00;4.03;;;2.23;;
10260;SDS011;5175;42.606;23.388;2024-01-25T09:09:27;4.77;;;1.83;;
10260;SDS011;5175;42.606;23.388;2024-01-25T09:11:53;6.80;;;2.50;;
10260;SDS011;5175;42.606;23.388;2024-01-25T09:14:22;6.17;;;2.07;;
10260;SDS011;5175;42.606;23.388;2024-01-25T09:16:49;5.43;;;2.20;;
10260;SDS011;5175;42.606;23.388;2024-01-25T09:19:15;3.80;;;2.23;;
10260;SDS011;5175;42.606;23.388;2024-01-25T09:21:42;7.37;;;2.63;;
10260;SDS011;5175;42.606;23.388;2024-01-25T09:24:09;8.87;;;3.03;;
10260;SDS011;5175;42.606;23.388;2024-01-25T09:26:36;4.97;;;2.00;;
10260;SDS011;5175;42.606;23.388;2024-01-25T09:29:02;2.93;;;2.20;;
10260;SDS011;5175;42.606;23.388;2024-01-25T09:31:31;8.43;;;3.17;;
10260;SDS011;5175;42.606;23.388;2024-01-25T09:33:58;9.73;;;3.10;;
10260;SDS011;5175;42.606;23.388;2024-01-25T09:36:24;7.73;;;3.07;;
10260;SDS011;5175;42.606;23.388;2024-01-25T09:38:51;4.17;;;2.70;;
10260;SDS011;5175;42.606;23.388;2024-01-25T09:41:18;8.47;;;2.47;;
10260;SDS011;5175;42.606;23.388;2024-01-25T09:43:45;20.83;;;7.20;;
10260;SDS011;5175;42.606;23.388;2024-01-25T09:46:13;9.10;;;3.30;;
10260;SDS011;5175;42.606;23.388;2024-01-25T09:48:43;7.70;;;2.63;;
10260;SDS011;5175;42.606;23.388;2024-01-25T09:51:11;6.67;;;2.93;;
10260;SDS011;5175;42.606;23.388;2024-01-25T09:53:39;8.03;;;3.50;;
10260;SDS011;5175;42.606;23.388;2024-01-25T09:56:06;6.93;;;3.10;;
10260;SDS011;5175;42.606;23.388;2024-01-25T09:58:36;5.27;;;2.80;;
10260;SDS011;5175;42.606;23.388;2024-01-25T10:01:07;6.43;;;3.03;;
10260;SDS011;5175;42.606;23.388;2024-01-25T10:03:35;6.53;;;2.57;;
10260;SDS011;5175;42.606;23.388;2024-01-25T10:06:03;6.10;;;2.37;;
10260;SDS011;5175;42.606;23.388;2024-01-25T10:08:32;4.27;;;2.97;;
10260;SDS011;5175;42.606;23.388;2024-01-25T10:10:59;6.37;;;3.33;;
10260;SDS011;5175;42.606;23.388;2024-01-25T10:13:26;5.07;;;2.60;;
10260;SDS011;5175;42.606;23.388;2024-01-25T10:15:53;5.93;;;2.80;;
10260;SDS011;5175;42.606;23.388;2024-01-25T10:18:21;6.83;;;3.00;;
10260;SDS011;5175;42.606;23.388;2024-01-25T10:20:48;5.27;;;3.50;;
10260;SDS011;5175;42.606;23.388;2024-01-25T10:23:16;8.20;;;3.47;;
10260;SDS011;5175;42.606;23.388;2024-01-25T10:25:43;4.90;;;2.80;;
10260;SDS011;5175;42.606;23.388;2024-01-25T10:28:10;6.00;;;3.30;;
10260;SDS011;5175;42.606;23.388;2024-01-25T10:30:38;10.30;;;3.70;;
10260;SDS011;5175;42.606;23.388;2024-01-25T10:33:05;5.93;;;3.30;;
10260;SDS011;5175;42.606;23.388;2024-01-25T10:35:32;5.97;;;3.33;;
10260;SDS011;5175;42.606;23.388;2024-01-25T10:37:59;6.70;;;3.17;;
10260;SDS011;5175;42.606;23.388;2024-01-25T10:40:27;7.53;;;3.23;;
10260;SDS011;5175;42.606;23.388;2024-01-25T10:42:54;7.10;;;3.67;;
10260;SDS011;5175;42.606;23.388;2024-01-25T10:45:21;3.50;;;2.63;;
10260;SDS011;5175;42.606;23.388;2024-01-25T10:47:48;5.17;;;2.47;;
10260;SDS011;5175;42.606;23.388;2024-01-25T10:50:15;7.27;;;3.30;;
10260;SDS011;5175;42.606;23.388;2024-01-25T10:52:42;6.17;;;3.07;;
10260;SDS011;5175;42.606;23.388;2024-01-25T10:55:09;5.43;;;3.10;;
10260;SDS011;5175;42.606;23.388;2024-01-25T10:57:41;4.83;;;2.77;;
10260;SDS011;5175;42.606;23.388;2024-01-25T11:00:10;3.93;;;2.23;;
10260;SDS011;5175;42.606;23.388;2024-01-25T11:02:38;7.20;;;3.93;;
10260;SDS011;5175;42.606;23.388;2024-01-25T11:05:08;3.20;;;2.10;;
10260;SDS011;5175;42.606;23.388;2024-01-25T11:07:42;6.17;;;2.80;;
10260;SDS011;5175;42.606;23.388;2024-01-25T11:10:16;7.97;;;2.60;;
10260;SDS011;5175;42.606;23.388;2024-01-25T11:12:51;5.03;;;2.47;;
10260;SDS011;5175;42.606;23.388;2024-01-25T11:15:22;6.87;;;2.70;;
10260;SDS011;5175;42.606;23.388;2024-01-25T11:17:50;7.10;;;3.10;;
10260;SDS011;5175;42.606;23.388;2024-01-25T11:20:19;9.13;;;3.70;;
10260;SDS011;5175;42.606;23.388;2024-01-25T11:22:47;9.80;;;2.97;;
10260;SDS011;5175;42.606;23.388;2024-01-25T11:25:19;17.73;;;4.20;;
10260;SDS011;5175;42.606;23.388;2024-01-25T11:27:47;16.87;;;4.30;;
10260;SDS011;5175;42.606;23.388;2024-01-25T11:30:18;6.37;;;2.47;;
10260;SDS011;5175;42.606;23.388;2024-01-25T11:32:45;6.30;;;2.93;;
10260;SDS011;5175;42.606;23.388;2024-01-25T11:35:13;13.83;;;3.73;;
10260;SDS011;5175;42.606;23.388;2024-01-25T11:37:42;11.27;;;3.53;;
10260;SDS011;5175;42.606;23.388;2024-01-25T11:40:10;9.03;;;3.13;;
10260;SDS011;5175;42.606;23.388;2024-01-25T11:42:37;9.60;;;2.87;;
10260;SDS011;5175;42.606;23.388;2024-01-25T11:45:05;4.00;;;1.80;;
10260;SDS011;5175;42.606;23.388;2024-01-25T11:47:33;5.10;;;2.17;;
10260;SDS011;5175;42.606;23.388;2024-01-25T11:50:00;3.87;;;1.90;;
10260;SDS011;5175;42.606;23.388;2024-01-25T11:52:27;3.13;;;1.40;;
10260;SDS011;5175;42.606;23.388;2024-01-25T11:54:57;4.00;;;2.27;;
10260;SDS011;5175;42.606;23.388;2024-01-25T11:57:23;8.97;;;2.00;;
10260;SDS011;5175;42.606;23.388;2024-01-25T11:59:50;5.57;;;3.13;;
10260;SDS011;5175;42.606;23.388;2024-01-25T12:02:18;6.87;;;2.57;;
10260;SDS011;5175;42.606;23.388;2024-01-25T12:04:47;4.27;;;2.40;;
10260;SDS011;5175;42.606;23.388;2024-01-25T12:07:14;7.83;;;2.70;;
10260;SDS011;5175;42.606;23.388;2024-01-25T12:09:41;7.10;;;2.53;;
10260;SDS011;5175;42.606;23.388;2024-01-25T12:12:09;5.93;;;2.60;;
10260;SDS011;5175;42.606;23.388;2024-01-25T12:14:36;7.27;;;3.03;;
10260;SDS011;5175;42.606;23.388;2024-01-25T12:17:03;6.23;;;2.80;;
10260;SDS011;5175;42.606;23.388;2024-01-25T12:19:30;7.17;;;2.97;;
10260;SDS011;5175;42.606;23.388;2024-01-25T12:21:58;5.93;;;2.93;;
10260;SDS011;5175;42.606;23.388;2024-01-25T12:24:24;5.13;;;2.37;;
10260;SDS011;5175;42.606;23.388;2024-01-25T12:26:51;5.83;;;2.53;;
10260;SDS011;5175;42.606;23.388;2024-01-25T12:29:18;6.37;;;2.60;;
10260;SDS011;5175;42.606;23.388;2024-01-25T12:31:44;3.67;;;2.23;;
10260;SDS011;5175;42.606;23.388;2024-01-25T12:34:12;5.40;;;2.10;;
10260;SDS011;5175;42.606;23.388;2024-01-25T12:36:40;2.50;;;1.80;;
10260;SDS011;5175;42.606;23.388;2024-01-25T12:39:09;5.60;;;2.50;;
10260;SDS011;5175;42.606;23.388;2024-01-25T12:41:36;4.50;;;2.30;;
10260;SDS011;5175;42.606;23.388;2024-01-25T12:44:03;4.23;;;1.90;;
10260;SDS011;5175;42.606;23.388;2024-01-25T12:46:30;5.13;;;2.47;;
10260;SDS011;5175;42.606;23.388;2024-01-25T12:48:56;3.63;;;1.87;;
10260;SDS011;5175;42.606;23.388;2024-01-25T12:51:23;7.40;;;3.43;;
10260;SDS011;5175;42.606;23.388;2024-01-25T12:53:50;7.57;;;2.63;;
10260;SDS011;5175;42.606;23.388;2024-01-25T12:56:19;5.70;;;2.47;;
10260;SDS011;5175;42.606;23.388;2024-01-25T12:58:45;4.90;;;2.80;;
10260;SDS011;5175;42.606;23.388;2024-01-25T13:01:12;8.50;;;2.47;;
10260;SDS011;5175;42.606;23.388;2024-01-25T13:03:39;5.23;;;2.50;;
10260;SDS011;5175;42.606;23.388;2024-01-25T13:06:05;7.67;;;2.47;;
10260;SDS011;5175;42.606;23.388;2024-01-25T13:08:32;5.20;;;2.67;;
10260;SDS011;5175;42.606;23.388;2024-01-25T13:10:59;5.90;;;2.60;;
10260;SDS011;5175;42.606;23.388;2024-01-25T13:13:27;6.27;;;2.70;;
10260;SDS011;5175;42.606;23.388;2024-01-25T13:15:54;7.67;;;2.67;;
10260;SDS011;5175;42.606;23.388;2024-01-25T13:18:20;6.33;;;2.83;;
10260;SDS011;5175;42.606;23.388;2024-01-25T13:20:47;4.00;;;2.00;;
10260;SDS011;5175;42.606;23.388;2024-01-25T13:23:14;3.20;;;1.73;;
10260;SDS011;5175;42.606;23.388;2024-01-25T13:25:41;3.90;;;2.40;;
10260;SDS011;5175;42.606;23.388;2024-01-25T13:28:07;4.30;;;2.20;;
10260;SDS011;5175;42.606;23.388;2024-01-25T13:30:35;4.03;;;2.20;;
10260;SDS011;5175;42.606;23.388;2024-01-25T13:33:02;5.97;;;2.40;;
10260;SDS011;5175;42.606;23.388;2024-01-25T13:35:29;7.47;;;3.07;;
10260;SDS011;5175;42.606;23.388;2024-01-25T13:37:56;7.97;;;2.90;;
10260;SDS011;5175;42.606;23.388;2024-01-25T13:40:26;9.40;;;3.23;;
10260;SDS011;5175;42.606;23.388;2024-01-25T13:42:52;5.00;;;1.97;;
10260;SDS011;5175;42.606;23.388;2024-01-25T13:45:19;6.60;;;2.93;;
10260;SDS011;5175;42.606;23.388;2024-01-25T13:47:48;4.43;;;2.43;;
10260;SDS011;5175;42.606;23.388;2024-01-25T13:50:14;6.60;;;2.80;;
10260;SDS011;5175;42.606;23.388;2024-01-25T13:52:41;4.80;;;2.70;;
10260;SDS011;5175;42.606;23.388;2024-01-25T13:55:08;5.77;;;2.93;;
10260;SDS011;5175;42.606;23.388;2024-01-25T13:57:35;5.13;;;2.57;;
10260;SDS011;5175;42.606;23.388;2024-01-25T14:00:01;5.73;;;2.27;;
10260;SDS011;5175;42.606;23.388;2024-01-25T14:02:29;6.60;;;2.50;;
10260;SDS011;5175;42.606;23.388;2024-01-25T14:04:57;5.23;;;3.03;;
10260;SDS011;5175;42.606;23.388;2024-01-25T14:07:24;5.10;;;2.97;;
10260;SDS011;5175;42.606;23.388;2024-01-25T14:09:51;6.07;;;2.77;;
10260;SDS011;5175;42.606;23.388;2024-01-25T14:12:18;5.57;;;2.97;;
10260;SDS011;5175;42.606;23.388;2024-01-25T14:14:44;6.97;;;3.60;;
10260;SDS011;5175;42.606;23.388;2024-01-25T14:17:11;4.93;;;2.57;;
10260;SDS011;5175;42.606;23.388;2024-01-25T14:19:38;5.77;;;3.30;;
10260;SDS011;5175;42.606;23.388;2024-01-25T14:22:06;6.73;;;3.07;;
10260;SDS011;5175;42.606;23.388;2024-01-25T14:24:33;6.77;;;2.80;;
10260;SDS011;5175;42.606;23.388;2024-01-25T14:26:59;8.20;;;3.27;;
10260;SDS011;5175;42.606;23.388;2024-01-25T14:29:26;8.73;;;2.90;;
10260;SDS011;5175;42.606;23.388;2024-01-25T14:31:57;5.90;;;2.80;;
10260;SDS011;5175;42.606;23.388;2024-01-25T14:34:24;8.87;;;3.43;;
10260;SDS011;5175;42.606;23.388;2024-01-25T14:36:50;5.47;;;3.00;;
10260;SDS011;5175;42.606;23.388;2024-01-25T14:39:18;6.77;;;3.17;;
10260;SDS011;5175;42.606;23.388;2024-01-25T14:41:45;7.40;;;3.47;;
10260;SDS011;5175;42.606;23.388;2024-01-25T14:44:12;7.10;;;3.03;;
10260;SDS011;5175;42.606;23.388;2024-01-25T14:46:39;7.80;;;2.80;;